IN-0077 weather

CLOSED Bhagalpur Airport
Bhagalpur, Bihar, India

Public forecast

Using degrees Celsius for public forecast. Weather courtesy of forecast.io.

METAR (pilot weather report)

Closest report is Lok Nayak Jayaprakash Airport, 106.2 nm (196.7 km) WNW. Retrieved 2018/08/14 09:00 UTC (13 minutes ago):

VEPT 140900Z 08002KT 5000 -TS SCT015 SCT025 FEW030CB BKN100 31/26 Q0995 TEMPO 1500 -TSRA

TAF (pilot weather forecast)

Forecast is more than 12 hours old.

Closest forecast is Lok Nayak Jayaprakash Airport, 106.2 nm (196.7 km) WNW. Retrieved 2018/08/13 00:54 UTC (1 day ago):

TAF VEPT 132300Z 1400/1506 00000KT 2000 BR SCT018 SCT100 BECMG 1403/1405 3000 HZ BECMG 1407/1409 09003KT 4500 HZ FEW020 SCT025 BECMG 1415/1417 00000KT 3500 HZ SCT018 BKN100 BECMG 1421/1423 2200 BR -RA BECMG 1504/1506 11005KT 3000 HZ